createdAt,value
2023-05-11T00:01:25.365Z,14.90
2023-05-11T00:04:33.338Z,14.87
2023-05-11T00:07:48.639Z,14.88
2023-05-11T00:10:50.278Z,14.88
2023-05-11T00:14:05.379Z,14.86
2023-05-11T00:17:13.578Z,14.86
2023-05-11T00:20:21.882Z,14.86
2023-05-11T00:23:32.768Z,14.90
2023-05-11T00:26:47.665Z,14.91
2023-05-11T00:29:55.375Z,14.97
2023-05-11T00:33:03.901Z,14.98
2023-05-11T00:36:18.376Z,15.01
2023-05-11T00:39:21.380Z,15.00
2023-05-11T00:42:36.404Z,14.98
2023-05-11T00:45:51.321Z,14.95
2023-05-11T00:48:59.860Z,14.95
2023-05-11T00:52:08.367Z,14.98
2023-05-11T00:55:20.295Z,15.00
2023-05-11T00:58:28.427Z,14.99
2023-05-11T01:01:39.174Z,14.95
2023-05-11T01:04:47.364Z,14.98
2023-05-11T01:08:05.365Z,15.00
2023-05-11T01:11:34.435Z,14.99
2023-05-11T01:15:07.380Z,15.02
2023-05-11T01:18:32.079Z,15.02
2023-05-11T01:21:48.386Z,15.02
2023-05-11T01:25:25.402Z,15.03
2023-05-11T01:28:53.853Z,15.05
2023-05-11T01:32:14.501Z,14.90
2023-05-11T01:35:27.377Z,15.03
2023-05-11T01:38:46.871Z,14.97
2023-05-11T01:41:58.262Z,14.94
2023-05-11T01:45:17.423Z,14.91
2023-05-11T01:48:23.980Z,14.91
2023-05-11T01:51:43.398Z,14.89
2023-05-11T01:54:56.381Z,14.92
2023-05-11T01:58:17.288Z,14.90
2023-05-11T02:01:26.488Z,14.89
2023-05-11T02:04:37.370Z,14.88
2023-05-11T02:07:50.406Z,14.89
2023-05-11T02:11:00.643Z,14.92
2023-05-11T02:14:12.417Z,14.89
2023-05-11T02:17:30.677Z,14.87
2023-05-11T02:20:33.569Z,14.86
2023-05-11T02:23:49.448Z,14.85
2023-05-11T02:27:11.271Z,14.82
2023-05-11T02:30:28.702Z,14.75
2023-05-11T02:33:34.873Z,14.79
2023-05-11T02:36:50.451Z,14.85
2023-05-11T02:40:02.488Z,14.81
2023-05-11T02:43:20.406Z,14.74
2023-05-11T02:46:40.496Z,14.67
2023-05-11T02:49:51.486Z,14.59
2023-05-11T02:53:03.443Z,14.48
2023-05-11T02:56:13.327Z,14.44
2023-05-11T02:59:22.415Z,14.38
2023-05-11T03:02:37.810Z,14.36
2023-05-11T03:05:40.239Z,14.41
2023-05-11T03:08:55.544Z,14.39
2023-05-11T03:12:04.506Z,14.38
2023-05-11T03:15:14.463Z,14.36
2023-05-11T03:18:32.459Z,14.34
2023-05-11T03:21:44.011Z,14.37
2023-05-11T03:24:59.502Z,14.36
2023-05-11T03:28:16.267Z,14.35
2023-05-11T03:31:23.938Z,14.37
2023-05-11T03:34:33.477Z,14.32
2023-05-11T03:37:50.490Z,14.30
2023-05-11T03:40:56.441Z,14.28
2023-05-11T03:44:14.521Z,14.26
2023-05-11T03:47:18.558Z,14.19
2023-05-11T03:50:34.542Z,14.16
2023-05-11T03:53:49.456Z,14.10
2023-05-11T03:57:04.486Z,14.11
2023-05-11T04:00:07.873Z,14.16
2023-05-11T04:03:22.614Z,14.18
2023-05-11T04:06:31.495Z,14.22
2023-05-11T04:09:49.327Z,14.23
2023-05-11T04:12:50.930Z,14.16
2023-05-11T04:16:05.820Z,14.07
2023-05-11T04:19:07.530Z,14.02
2023-05-11T04:22:23.510Z,13.95
2023-05-11T04:25:45.482Z,13.93
2023-05-11T04:29:00.485Z,14.04
2023-05-11T04:32:15.482Z,14.13
2023-05-11T04:35:17.281Z,14.30
2023-05-11T04:38:31.473Z,14.44
2023-05-11T04:41:40.068Z,14.47
2023-05-11T04:44:54.503Z,14.35
2023-05-11T04:48:09.539Z,14.31
2023-05-11T04:51:24.522Z,14.31
2023-05-11T04:54:32.806Z,14.32
2023-05-11T04:57:40.967Z,14.29
2023-05-11T05:00:55.646Z,14.28
2023-05-11T05:04:03.727Z,14.18
2023-05-11T05:07:11.958Z,14.11
2023-05-11T05:10:26.479Z,14.04
2023-05-11T05:13:28.119Z,14.11
2023-05-11T05:16:42.844Z,14.19
2023-05-11T05:19:53.397Z,14.26
2023-05-11T05:23:02.663Z,14.20
2023-05-11T05:26:10.531Z,14.22
2023-05-11T05:29:19.447Z,14.22
2023-05-11T05:32:27.616Z,14.11
2023-05-11T05:35:36.365Z,14.12
2023-05-11T05:38:47.533Z,14.08
2023-05-11T05:42:02.881Z,14.05
2023-05-11T05:45:17.583Z,14.12
2023-05-11T05:48:19.204Z,14.24
2023-05-11T05:51:33.616Z,14.53
2023-05-11T05:54:41.612Z,14.58
2023-05-11T05:57:50.100Z,14.68
2023-05-11T06:00:58.815Z,14.82
2023-05-11T06:04:07.177Z,14.96
2023-05-11T06:07:15.608Z,15.13
2023-05-11T06:13:55.563Z,15.39
2023-05-11T06:17:06.946Z,15.25
2023-05-11T06:20:32.300Z,15.44
2023-05-11T06:23:40.581Z,15.57
2023-05-11T06:26:55.785Z,15.73
2023-05-11T06:30:03.607Z,15.78
2023-05-11T06:33:12.337Z,15.85
2023-05-11T06:36:20.865Z,16.06
2023-05-11T06:39:29.008Z,16.20
2023-05-11T06:42:40.751Z,16.28
2023-05-11T06:45:56.573Z,16.45
2023-05-11T06:49:05.400Z,16.04
2023-05-11T06:52:19.900Z,16.18
2023-05-11T06:55:28.089Z,16.32
2023-05-11T07:02:20.389Z,16.66
2023-05-11T07:05:34.585Z,16.49
2023-05-11T07:08:42.643Z,16.98
2023-05-11T07:11:58.583Z,16.91
2023-05-11T07:15:06.665Z,16.83
2023-05-11T07:18:22.171Z,16.92
2023-05-11T07:21:31.337Z,17.02
2023-05-11T07:24:39.581Z,16.99
2023-05-11T07:28:03.917Z,16.84
2023-05-11T07:31:06.235Z,17.47
2023-05-11T07:34:21.655Z,17.74
2023-05-11T07:37:30.108Z,17.42
2023-05-11T07:40:38.580Z,17.30
2023-05-11T07:43:53.893Z,17.42
2023-05-11T07:46:55.562Z,17.51
2023-05-11T07:50:13.784Z,17.46
2023-05-11T07:53:22.612Z,17.53
2023-05-11T07:56:31.663Z,17.78
2023-05-11T07:59:39.603Z,17.78
2023-05-11T08:02:54.758Z,17.62
2023-05-11T08:06:12.447Z,17.56
2023-05-11T08:09:21.685Z,17.98
2023-05-11T08:12:36.632Z,17.95
2023-05-11T08:15:39.699Z,18.03
2023-05-11T08:18:54.926Z,18.30
2023-05-11T08:22:16.728Z,18.42
2023-05-11T08:25:38.647Z,18.20
2023-05-11T08:32:22.734Z,18.15
2023-05-11T08:35:28.604Z,18.50
2023-05-11T08:38:48.485Z,18.17
2023-05-11T08:42:02.935Z,18.47
2023-05-11T08:45:12.184Z,18.92
2023-05-11T08:48:24.360Z,19.06
2023-05-11T08:51:40.105Z,19.25
2023-05-11T08:54:49.259Z,19.42
2023-05-11T08:58:10.675Z,19.44
2023-05-11T09:01:19.775Z,19.61
2023-05-11T09:04:31.671Z,19.60
2023-05-11T09:07:42.653Z,19.76
2023-05-11T09:11:19.815Z,19.56
2023-05-11T09:14:26.937Z,19.65
2023-05-11T09:17:41.748Z,19.84
2023-05-11T09:20:50.720Z,20.13
2023-05-11T09:24:02.962Z,20.05
2023-05-11T09:27:25.999Z,21.66
2023-05-11T09:30:27.799Z,23.70
2023-05-11T09:33:42.716Z,24.83
2023-05-11T09:36:48.685Z,23.91
2023-05-11T09:43:34.710Z,22.13
2023-05-11T09:46:45.408Z,21.90
2023-05-11T09:49:53.712Z,21.06
2023-05-11T09:53:03.817Z,21.84
2023-05-11T09:56:13.363Z,23.23
2023-05-11T09:59:44.807Z,23.31
2023-05-11T10:03:12.139Z,23.94
2023-05-11T10:06:22.770Z,26.26
2023-05-11T10:09:32.747Z,25.93
2023-05-11T10:12:47.694Z,25.43
2023-05-11T10:15:58.929Z,23.84
2023-05-11T10:19:19.735Z,23.39
2023-05-11T10:22:22.436Z,24.52
2023-05-11T10:25:36.736Z,24.56
2023-05-11T10:28:47.863Z,24.89
2023-05-11T10:32:07.811Z,24.91
2023-05-11T10:35:09.796Z,24.65
2023-05-11T10:38:33.066Z,25.19
2023-05-11T10:42:06.234Z,25.53
2023-05-11T10:49:39.363Z,26.90
2023-05-11T10:56:58.396Z,24.69
2023-05-11T11:00:44.304Z,24.29
2023-05-11T11:04:06.845Z,24.24
2023-05-11T11:07:26.222Z,25.19
2023-05-11T11:10:47.076Z,24.68
2023-05-11T11:14:07.882Z,24.00
2023-05-11T11:17:30.766Z,23.17
2023-05-11T11:20:49.277Z,24.34
2023-05-11T11:23:57.738Z,24.89
2023-05-11T11:27:29.461Z,23.82
2023-05-11T11:30:46.010Z,22.84
2023-05-11T11:33:59.776Z,22.69
2023-05-11T11:37:10.148Z,22.44
2023-05-11T11:40:50.603Z,22.05
2023-05-11T11:43:53.688Z,22.16
2023-05-11T11:47:27.761Z,22.21
2023-05-11T11:50:42.754Z,22.28
2023-05-11T11:57:46.449Z,21.22
2023-05-11T12:01:01.988Z,21.42
2023-05-11T12:04:43.113Z,21.54
2023-05-11T12:07:54.149Z,22.01
2023-05-11T12:11:07.226Z,21.63
2023-05-11T12:14:15.807Z,21.35
2023-05-11T12:17:45.802Z,21.38
2023-05-11T12:20:53.761Z,21.27
2023-05-11T12:24:04.860Z,21.87
2023-05-11T12:27:28.004Z,21.96
2023-05-11T12:30:43.104Z,22.39
2023-05-11T12:33:46.740Z,22.30
2023-05-11T12:37:02.521Z,22.02
2023-05-11T12:40:11.933Z,22.28
2023-05-11T12:43:24.187Z,22.33
2023-05-11T12:46:33.534Z,21.92
2023-05-11T12:49:41.963Z,22.11
2023-05-11T12:52:50.384Z,22.18
2023-05-11T12:56:05.831Z,21.97
2023-05-11T12:59:40.594Z,21.93
2023-05-11T13:06:30.466Z,22.24
2023-05-11T13:09:39.438Z,22.15
2023-05-11T13:12:58.364Z,22.03
2023-05-11T13:16:06.930Z,21.95
2023-05-11T13:19:15.728Z,22.13
2023-05-11T13:22:31.958Z,22.21
2023-05-11T13:25:41.902Z,22.42
2023-05-11T13:29:10.608Z,22.77
2023-05-11T13:32:12.894Z,22.11
2023-05-11T13:35:30.212Z,21.76
2023-05-11T13:38:41.845Z,21.70
2023-05-11T13:41:52.641Z,21.62
2023-05-11T13:45:09.892Z,21.54
2023-05-11T13:48:27.890Z,21.43
2023-05-11T13:51:39.289Z,21.66
2023-05-11T13:54:55.165Z,21.45
2023-05-11T13:58:10.271Z,21.23
2023-05-11T14:01:56.043Z,21.31
2023-05-11T14:05:04.216Z,21.33
2023-05-11T14:08:23.379Z,21.30
2023-05-11T14:11:36.899Z,21.20
2023-05-11T14:14:53.968Z,21.09
2023-05-11T14:18:12.875Z,21.31
2023-05-11T14:21:30.898Z,21.07
2023-05-11T14:24:39.456Z,21.12
2023-05-11T14:27:53.862Z,21.09
2023-05-11T14:31:08.926Z,21.16
2023-05-11T14:34:42.904Z,21.12
2023-05-11T14:37:57.870Z,20.96
2023-05-11T14:41:12.926Z,21.10
2023-05-11T14:44:27.913Z,21.00
2023-05-11T14:47:36.874Z,20.98
2023-05-11T14:50:45.904Z,21.00
2023-05-11T14:53:54.555Z,20.79
2023-05-11T14:57:09.917Z,20.67
2023-05-11T15:00:19.197Z,20.66
2023-05-11T15:03:27.676Z,20.81
2023-05-11T15:06:41.903Z,20.94
2023-05-11T15:09:50.607Z,20.96
2023-05-11T15:13:05.049Z,20.74
2023-05-11T15:16:14.481Z,20.69
2023-05-11T15:19:23.222Z,20.56
2023-05-11T15:22:37.974Z,20.55
2023-05-11T15:25:51.218Z,20.33
2023-05-11T15:29:05.919Z,20.36
2023-05-11T15:32:20.924Z,20.25
2023-05-11T15:35:22.676Z,20.12
2023-05-11T15:38:36.916Z,20.13
2023-05-11T15:41:45.367Z,20.12
2023-05-11T15:44:53.928Z,19.91
2023-05-11T15:48:03.450Z,19.96
2023-05-11T15:51:11.998Z,19.90
2023-05-11T15:54:27.051Z,19.78
2023-05-11T15:57:28.626Z,19.76
2023-05-11T16:00:43.278Z,19.72
2023-05-11T16:03:51.976Z,19.69
2023-05-11T16:07:07.220Z,19.64
2023-05-11T16:10:09.337Z,19.67
2023-05-11T16:13:23.998Z,19.68
2023-05-11T16:16:33.948Z,19.58
2023-05-11T16:19:48.940Z,19.49
2023-05-11T16:22:57.544Z,19.55
2023-05-11T16:26:05.948Z,19.45
2023-05-11T16:29:21.226Z,19.37
2023-05-11T16:32:35.985Z,19.45
2023-05-11T16:35:43.961Z,19.47
2023-05-11T16:38:52.456Z,19.48
2023-05-11T16:42:00.956Z,19.36
2023-05-11T16:45:12.952Z,19.32
2023-05-11T16:48:22.123Z,19.31
2023-05-11T16:51:30.571Z,19.17
2023-05-11T16:54:44.964Z,19.13
2023-05-11T16:57:48.139Z,19.19
2023-05-11T17:01:04.991Z,18.90
2023-05-11T17:04:06.716Z,18.78
2023-05-11T17:07:20.985Z,18.47
2023-05-11T17:10:28.973Z,18.24
2023-05-11T17:13:38.444Z,18.19
2023-05-11T17:16:49.033Z,18.05
2023-05-11T17:20:03.986Z,18.00
2023-05-11T17:23:12.422Z,17.94
2023-05-11T17:26:35.377Z,17.94
2023-05-11T17:29:52.320Z,17.87
2023-05-11T17:33:08.414Z,17.72
2023-05-11T17:36:10.254Z,17.65
2023-05-11T17:39:24.971Z,17.50
2023-05-11T17:42:34.054Z,17.57
2023-05-11T17:45:42.612Z,17.52
2023-05-11T17:48:51.826Z,17.45
2023-05-11T17:52:05.998Z,17.47
2023-05-11T17:55:08.182Z,17.49
2023-05-11T17:58:22.999Z,17.36
2023-05-11T18:01:31.151Z,17.34
2023-05-11T18:04:39.656Z,17.19
2023-05-11T18:07:48.012Z,17.23
2023-05-11T18:11:03.031Z,17.26
2023-05-11T18:14:04.746Z,16.96
2023-05-11T18:17:19.110Z,16.83
2023-05-11T18:20:20.944Z,16.76
2023-05-11T18:23:36.054Z,16.64
2023-05-11T18:26:37.851Z,16.47
2023-05-11T18:30:00.079Z,16.35
2023-05-11T18:33:09.117Z,16.35
2023-05-11T18:36:17.702Z,16.23
2023-05-11T18:39:26.002Z,16.15
2023-05-11T18:42:34.865Z,16.16
2023-05-11T18:45:43.037Z,16.27
2023-05-11T18:48:58.017Z,16.08
2023-05-11T18:52:07.035Z,15.68
2023-05-11T18:55:17.761Z,15.64
2023-05-11T18:58:27.402Z,15.52
2023-05-11T19:01:47.927Z,15.21
2023-05-11T19:05:07.164Z,15.32
2023-05-11T19:08:10.137Z,15.11
2023-05-11T19:11:25.025Z,15.24
2023-05-11T19:14:27.145Z,15.21
2023-05-11T19:17:43.076Z,15.17
2023-05-11T19:20:45.204Z,14.95
2023-05-11T19:24:00.061Z,15.09
2023-05-11T19:27:07.411Z,15.00
2023-05-11T19:30:31.131Z,14.91
2023-05-11T19:33:40.093Z,14.82
2023-05-11T19:36:55.413Z,14.68
2023-05-11T19:40:06.436Z,14.77
2023-05-11T19:43:33.108Z,14.78
2023-05-11T19:46:35.203Z,14.67
2023-05-11T19:49:50.053Z,14.59
2023-05-11T19:52:58.637Z,14.50
2023-05-11T19:56:07.035Z,14.42
2023-05-11T19:59:22.084Z,14.15
2023-05-11T20:02:23.833Z,14.20
2023-05-11T20:05:40.201Z,14.27
2023-05-11T20:08:41.869Z,14.26
2023-05-11T20:11:56.118Z,14.13
2023-05-11T20:14:57.802Z,14.16
2023-05-11T20:18:12.142Z,14.12
2023-05-11T20:21:20.079Z,14.14
2023-05-11T20:24:36.051Z,14.09
2023-05-11T20:27:37.677Z,14.22
2023-05-11T20:30:59.352Z,14.20
2023-05-11T20:34:07.741Z,14.16
2023-05-11T20:37:22.154Z,14.30
2023-05-11T20:40:30.376Z,14.09
2023-05-11T20:43:45.194Z,14.18
2023-05-11T20:46:46.923Z,14.04
2023-05-11T20:50:01.433Z,14.11
2023-05-11T20:53:16.114Z,14.01
2023-05-11T20:56:24.605Z,14.10
2023-05-11T21:02:51.145Z,13.92
2023-05-11T21:05:52.999Z,13.85
2023-05-11T21:09:08.430Z,13.81
2023-05-11T21:12:16.085Z,13.74
2023-05-11T21:15:31.422Z,13.65
2023-05-11T21:18:39.169Z,13.78
2023-05-11T21:21:54.105Z,13.74
2023-05-11T21:24:55.759Z,13.64
2023-05-11T21:28:10.143Z,13.67
2023-05-11T21:31:18.905Z,13.46
2023-05-11T21:34:27.134Z,13.44
2023-05-11T21:37:35.641Z,13.45
2023-05-11T21:40:44.177Z,13.51
2023-05-11T21:43:59.143Z,13.57
2023-05-11T21:47:00.917Z,13.54
2023-05-11T21:50:15.145Z,13.58
2023-05-11T21:53:16.974Z,13.61
2023-05-11T21:56:32.111Z,13.69
2023-05-11T21:59:40.431Z,13.65
2023-05-11T22:02:49.460Z,13.53
2023-05-11T22:05:58.145Z,13.50
2023-05-11T22:09:06.705Z,13.50
2023-05-11T22:12:21.285Z,13.54
2023-05-11T22:15:23.296Z,13.59
2023-05-11T22:18:38.184Z,13.64
2023-05-11T22:21:46.410Z,13.63
2023-05-11T22:24:54.616Z,13.50
2023-05-11T22:28:03.432Z,13.53
2023-05-11T22:31:11.669Z,13.57
2023-05-11T22:34:20.137Z,13.64
2023-05-11T22:37:28.699Z,13.59
2023-05-11T22:40:43.134Z,13.60
2023-05-11T22:43:51.141Z,13.58
2023-05-11T22:47:06.427Z,13.56
2023-05-11T22:50:14.825Z,13.51
2023-05-11T22:53:29.169Z,13.44
2023-05-11T22:56:44.154Z,13.44
2023-05-11T22:59:52.162Z,13.33
2023-05-11T23:03:02.391Z,13.32
2023-05-11T23:06:17.170Z,13.30
2023-05-11T23:09:18.845Z,13.30
2023-05-11T23:12:33.201Z,13.17
2023-05-11T23:15:48.172Z,13.08
2023-05-11T23:19:03.310Z,13.13
2023-05-11T23:22:11.957Z,13.01
2023-05-11T23:25:20.265Z,13.10
2023-05-11T23:28:35.735Z,13.12
2023-05-11T23:31:44.208Z,13.02
2023-05-11T23:34:52.682Z,12.98
2023-05-11T23:38:07.170Z,12.95
2023-05-11T23:41:16.202Z,12.90
2023-05-11T23:44:31.554Z,12.85
2023-05-11T23:47:39.857Z,12.86
2023-05-11T23:50:48.210Z,12.87
2023-05-11T23:53:56.731Z,12.82
2023-05-11T23:57:05.352Z,12.91
